Time;durP1;ratioP1;P1;durP2;ratioP2;P2;SDS_P1;SDS_P2;PMS_P1;PMS_P2;Temp;Humidity;BMP_temperature;BMP_pressure;BME280_temperature;BME280_humidity;BME280_pressure;Samples;Min_cycle;Max_cycle;Signal;HPM_P1;HPM_P2
2022/01/05 00:01:07;;;;;;;;;4.00;1.67;;;;;5.51;69.79;100531.94;5007507;28;45252;-66
2022/01/05 00:03:34;;;;;;;;;3.00;2.00;;;;;5.47;69.20;100545.69;5008490;28;45318;-66
2022/01/05 00:05:59;;;;;;;;;1.00;1.00;;;;;5.36;69.31;100540.25;5012701;28;45326;-67
2022/01/05 00:08:25;;;;;;;;;2.00;1.00;;;;;5.42;69.41;100549.69;5006434;28;45682;-67
2022/01/05 00:10:52;;;;;;;;;3.00;1.00;;;;;5.32;69.33;100554.09;5012246;28;45653;-67
2022/01/05 00:13:17;;;;;;;;;3.00;2.00;;;;;5.31;70.26;100555.94;5009775;28;45286;-66
2022/01/05 00:15:43;;;;;;;;;4.00;1.67;;;;;5.29;69.82;100559.72;5014120;28;45582;-66
2022/01/05 00:18:08;;;;;;;;;3.67;1.00;;;;;5.23;69.57;100546.72;5004843;28;45409;-66
2022/01/05 00:20:33;;;;;;;;;2.33;2.33;;;;;5.24;69.46;100553.84;5005924;28;45951;-67
2022/01/05 00:22:59;;;;;;;;;6.00;2.00;;;;;5.24;69.06;100561.91;5008260;28;45732;-67
2022/01/05 00:25:24;;;;;;;;;2.33;2.00;;;;;5.20;68.56;100561.28;5017514;28;45631;-67
2022/01/05 00:27:49;;;;;;;;;3.00;2.00;;;;;5.10;67.36;100557.59;5006629;28;45608;-66
2022/01/05 00:30:15;;;;;;;;;5.33;2.00;;;;;5.08;67.17;100564.94;5006780;28;45672;-66
2022/01/05 00:32:40;;;;;;;;;5.67;2.00;;;;;5.05;67.18;100560.63;5003696;28;45590;-66
2022/01/05 00:35:06;;;;;;;;;6.33;5.00;;;;;5.08;67.36;100556.84;5008709;28;45292;-66
2022/01/05 00:37:31;;;;;;;;;2.67;2.67;;;;;5.10;67.18;100560.28;5009867;28;46267;-66
2022/01/05 00:39:57;;;;;;;;;3.00;2.00;;;;;5.07;67.58;100565.91;5005876;28;45438;-66
2022/01/05 00:42:23;;;;;;;;;1.33;1.00;;;;;5.01;66.96;100561.00;5002526;28;45331;-66
2022/01/05 00:44:49;;;;;;;;;3.00;2.00;;;;;5.01;66.92;100572.63;5008207;28;45509;-66
2022/01/05 00:47:15;;;;;;;;;3.33;1.00;;;;;4.98;66.86;100574.66;5005878;28;47032;-66
2022/01/05 00:49:41;;;;;;;;;3.67;3.00;;;;;4.98;67.45;100569.28;5005947;28;45440;-67
2022/01/05 00:52:06;;;;;;;;;2.00;1.00;;;;;5.01;68.02;100577.16;5006826;28;45366;-66
2022/01/05 00:54:32;;;;;;;;;1.00;1.00;;;;;4.99;67.72;100579.09;5007354;28;45616;-66
2022/01/05 00:56:57;;;;;;;;;6.00;2.00;;;;;5.00;68.17;100578.97;5005794;28;45391;-66
2022/01/05 00:59:24;;;;;;;;;6.00;3.00;;;;;5.02;68.57;100586.94;5006949;28;45495;-66
2022/01/05 01:01:50;;;;;;;;;4.33;2.00;;;;;4.97;68.22;100589.97;5007524;28;45488;-67
2022/01/05 01:04:15;;;;;;;;;2.33;2.33;;;;;4.94;68.65;100581.28;5006418;28;45574;-66
2022/01/05 01:06:41;;;;;;;;;4.00;2.00;;;;;4.97;68.30;100599.88;5004936;28;45729;-66
2022/01/05 01:09:07;;;;;;;;;1.00;1.00;;;;;4.89;68.39;100591.56;5008422;28;45484;-66
2022/01/05 01:11:32;;;;;;;;;2.00;2.00;;;;;4.91;68.18;100605.72;5008395;28;45457;-66
2022/01/05 01:13:58;;;;;;;;;4.33;3.00;;;;;4.91;67.91;100597.66;5009784;28;45413;-66
2022/01/05 01:16:23;;;;;;;;;1.67;1.67;;;;;4.84;67.46;100615.25;5002485;28;46926;-66
2022/01/05 01:18:49;;;;;;;;;4.33;2.00;;;;;4.76;67.77;100610.44;5005019;28;45291;-66
2022/01/05 01:21:14;;;;;;;;;3.67;2.00;;;;;4.83;67.95;100621.59;5008198;28;45819;-66
2022/01/05 01:23:42;;;;;;;;;2.00;2.00;;;;;4.83;67.78;100627.84;5008551;28;45571;-66
2022/01/05 01:26:08;;;;;;;;;5.00;2.00;;;;;4.78;68.46;100623.78;5011229;28;45499;-66
2022/01/05 01:28:34;;;;;;;;;6.00;2.00;;;;;4.82;68.34;100636.06;5005719;28;45441;-66
2022/01/05 01:30:59;;;;;;;;;5.33;3.00;;;;;4.82;68.22;100636.06;5010365;28;45398;-66
2022/01/05 01:33:24;;;;;;;;;3.67;3.00;;;;;4.71;67.08;100631.47;5008208;28;45552;-66
2022/01/05 01:35:50;;;;;;;;;1.00;1.00;;;;;4.79;68.27;100636.28;5015440;28;45405;-66
2022/01/05 01:38:15;;;;;;;;;6.33;3.67;;;;;4.78;67.83;100640.78;5009506;28;45378;-66
2022/01/05 01:40:41;;;;;;;;;2.33;1.00;;;;;4.79;68.52;100644.34;5009583;28;45732;-66
2022/01/05 01:43:07;;;;;;;;;4.00;2.00;;;;;4.75;68.04;100656.31;5005085;28;45519;-66
2022/01/05 01:45:34;;;;;;;;;3.00;1.00;;;;;4.68;67.61;100655.88;5014429;28;46712;-66
2022/01/05 01:47:59;;;;;;;;;0.33;0.33;;;;;4.65;68.02;100666.91;5008570;28;45432;-66
2022/01/05 01:50:24;;;;;;;;;5.00;2.00;;;;;4.62;68.53;100661.72;5009525;28;45453;-66
2022/01/05 01:52:50;;;;;;;;;2.33;2.00;;;;;4.64;69.19;100675.94;5004255;28;45520;-66
2022/01/05 01:55:16;;;;;;;;;5.33;2.33;;;;;4.55;69.18;100665.84;5009820;28;47107;-66
2022/01/05 01:57:44;;;;;;;;;5.33;2.00;;;;;4.51;68.99;100678.66;5010217;28;45963;-66
2022/01/05 02:00:12;;;;;;;;;2.00;2.00;;;;;4.57;69.49;100682.75;5013112;28;45272;-66
2022/01/05 02:02:37;;;;;;;;;2.00;2.00;;;;;4.48;69.06;100678.03;5009086;28;45403;-66
2022/01/05 02:05:04;;;;;;;;;2.00;0.00;;;;;4.48;69.05;100689.66;5009657;28;48401;-66
2022/01/05 02:07:29;;;;;;;;;5.67;3.00;;;;;4.43;68.99;100693.66;5005193;28;45279;-66
2022/01/05 02:09:55;;;;;;;;;2.33;1.67;;;;;4.46;69.45;100709.53;5029240;28;46216;-67
2022/01/05 02:12:22;;;;;;;;;5.67;3.33;;;;;4.41;69.17;100706.34;5007813;28;45362;-66
2022/01/05 02:14:47;;;;;;;;;1.00;1.00;;;;;4.42;69.25;100713.44;5012801;28;46102;-66
2022/01/05 02:17:20;;;;;;;;;2.00;2.00;;;;;4.39;69.69;100711.81;5016290;28;45829;-66
2022/01/05 02:19:45;;;;;;;;;5.00;3.33;;;;;4.43;69.41;100718.72;5010782;28;45435;-66
2022/01/05 02:22:11;;;;;;;;;3.33;3.33;;;;;4.30;69.59;100721.44;5010395;28;45400;-66
2022/01/05 02:24:36;;;;;;;;;3.33;3.33;;;;;4.32;69.90;100718.59;5014175;28;46581;-66
2022/01/05 02:27:02;;;;;;;;;4.67;2.33;;;;;4.33;69.11;100723.03;5022901;28;45668;-66
2022/01/05 02:29:27;;;;;;;;;6.33;3.67;;;;;4.29;69.32;100714.31;5013881;28;45478;-66
2022/01/05 02:31:53;;;;;;;;;4.67;4.67;;;;;4.29;69.34;100718.84;5004592;28;45414;-66
2022/01/05 02:34:19;;;;;;;;;5.00;2.67;;;;;4.31;69.82;100717.75;5008624;28;45511;-67
2022/01/05 02:36:44;;;;;;;;;6.33;2.67;;;;;4.37;69.53;100710.22;5009998;28;45434;-66
2022/01/05 02:39:09;;;;;;;;;6.00;2.00;;;;;4.41;68.94;100722.47;5011193;28;45439;-66
2022/01/05 02:41:35;;;;;;;;;5.33;2.67;;;;;4.26;68.53;100717.22;5008538;28;45539;-66
2022/01/05 02:44:00;;;;;;;;;3.00;2.00;;;;;4.28;68.38;100712.59;5012797;28;48239;-66
2022/01/05 02:46:25;;;;;;;;;6.00;4.67;;;;;4.26;68.64;100716.34;5005613;28;45219;-67
2022/01/05 02:48:53;;;;;;;;;5.00;2.67;;;;;4.32;68.56;100708.72;5008637;28;45702;-66
2022/01/05 02:51:19;;;;;;;;;5.00;2.33;;;;;4.30;68.09;100715.19;5020193;28;45417;-66
2022/01/05 02:53:45;;;;;;;;;2.00;2.00;;;;;4.25;68.11;100712.81;5009392;28;45416;-66
2022/01/05 02:56:11;;;;;;;;;4.67;3.33;;;;;4.24;68.96;100727.22;5005108;28;45512;-66
2022/01/05 02:58:37;;;;;;;;;3.33;3.33;;;;;4.25;69.05;100739.69;5005867;28;45461;-66
2022/01/05 03:01:04;;;;;;;;;2.00;2.00;;;;;4.21;68.42;100722.06;5024604;28;45308;-66
2022/01/05 03:03:29;;;;;;;;;3.33;3.33;;;;;4.16;68.13;100737.69;5003784;28;46508;-66
2022/01/05 03:05:54;;;;;;;;;5.33;2.67;;;;;4.18;68.45;100737.56;5008665;28;45706;-67
2022/01/05 03:08:20;;;;;;;;;7.00;4.00;;;;;4.23;69.26;100735.41;5008898;28;45307;-66
2022/01/05 03:10:46;;;;;;;;;7.00;3.67;;;;;4.24;68.92;100748.72;5012222;28;45456;-66
2022/01/05 03:13:11;;;;;;;;;3.67;3.67;;;;;4.14;68.53;100747.69;5007264;28;45647;-67
2022/01/05 03:15:37;;;;;;;;;2.67;2.00;;;;;4.11;68.22;100755.94;5007532;28;45743;-66
2022/01/05 03:18:06;;;;;;;;;3.33;2.00;;;;;4.16;69.05;100763.72;5009123;28;45374;-66
2022/01/05 03:20:34;;;;;;;;;5.00;4.67;;;;;4.08;69.27;100758.88;5008773;28;45442;-66
2022/01/05 03:23:00;;;;;;;;;5.00;3.33;;;;;4.13;68.64;100758.53;5009772;28;45409;-67
2022/01/05 03:25:25;;;;;;;;;1.00;1.00;;;;;4.04;68.21;100767.22;5014508;28;45299;-66
2022/01/05 03:27:52;;;;;;;;;4.33;3.67;;;;;4.05;68.28;100763.59;5006280;28;45283;-66
2022/01/05 03:30:23;;;;;;;;;2.67;2.67;;;;;4.09;68.52;100770.47;5009392;28;45611;-66
2022/01/05 03:35:24;;;;;;;;;6.00;3.67;;;;;4.06;68.27;100776.06;5008215;28;45316;-66
2022/01/05 03:37:50;;;;;;;;;1.67;1.67;;;;;4.05;68.40;100777.03;5005237;28;45309;-66
2022/01/05 03:40:15;;;;;;;;;2.00;2.00;;;;;3.97;68.56;100777.56;5008627;28;45347;-66
2022/01/05 03:42:40;;;;;;;;;3.00;2.00;;;;;4.00;69.13;100787.25;5008171;28;45418;-66
2022/01/05 03:45:06;;;;;;;;;2.00;2.00;;;;;4.03;68.72;100787.00;5007409;28;45250;-66
2022/01/05 03:47:32;;;;;;;;;3.33;3.33;;;;;3.99;68.68;100790.91;5012917;28;45593;-66
2022/01/05 03:49:57;;;;;;;;;5.33;2.67;;;;;3.98;69.09;100810.66;5008038;28;45458;-66
2022/01/05 03:52:23;;;;;;;;;6.67;5.00;;;;;4.00;69.36;100815.00;5005275;28;47454;-66
2022/01/05 03:54:48;;;;;;;;;5.00;2.00;;;;;4.01;69.61;100805.09;5007340;28;45418;-67
2022/01/05 03:57:14;;;;;;;;;1.00;1.00;;;;;3.92;69.32;100820.88;5010809;28;45897;-66
2022/01/05 03:59:39;;;;;;;;;5.00;2.33;;;;;3.87;69.05;100825.69;5013221;28;45310;-66
2022/01/05 04:02:04;;;;;;;;;8.00;4.00;;;;;3.85;69.18;100821.41;5005552;28;47072;-66
2022/01/05 04:04:30;;;;;;;;;8.67;4.00;;;;;3.82;69.30;100806.34;5004323;28;45597;-66
2022/01/05 04:06:55;;;;;;;;;5.67;3.33;;;;;3.85;69.46;100816.91;5012183;28;45361;-66
2022/01/05 04:09:20;;;;;;;;;8.67;4.33;;;;;3.87;69.32;100823.00;5010239;28;45539;-66
2022/01/05 04:11:46;;;;;;;;;4.67;3.67;;;;;3.96;69.57;100817.97;5028735;28;47063;-66
2022/01/05 04:14:12;;;;;;;;;6.67;4.00;;;;;3.91;69.26;100826.34;5011923;28;45373;-66
2022/01/05 04:16:38;;;;;;;;;5.00;1.67;;;;;3.92;69.61;100826.25;5004867;28;45457;-66
2022/01/05 04:19:03;;;;;;;;;5.33;5.00;;;;;3.94;69.18;100828.00;5009904;28;45544;-66
2022/01/05 04:21:28;;;;;;;;;5.33;3.33;;;;;3.89;69.89;100831.84;5009588;28;47927;-66
2022/01/05 04:23:54;;;;;;;;;4.33;4.33;;;;;3.96;69.65;100829.59;5008617;28;45353;-66
2022/01/05 04:26:19;;;;;;;;;4.33;4.00;;;;;3.92;69.57;100820.88;5030796;28;45314;-66
2022/01/05 04:28:44;;;;;;;;;6.00;2.00;;;;;3.94;69.48;100819.94;5005727;28;45697;-66
2022/01/05 04:31:10;;;;;;;;;3.33;2.00;;;;;3.92;69.60;100833.47;5008880;28;45574;-66
2022/01/05 04:33:35;;;;;;;;;2.67;2.67;;;;;3.82;69.32;100822.47;5021610;28;45311;-66
2022/01/05 04:36:01;;;;;;;;;3.33;1.67;;;;;3.82;69.17;100832.34;5026477;28;45426;-66
2022/01/05 04:38:26;;;;;;;;;1.00;1.00;;;;;3.85;68.67;100835.72;5041603;28;45262;-67
2022/01/05 04:40:51;;;;;;;;;3.67;2.00;;;;;3.85;69.04;100826.78;5026578;28;45519;-66
2022/01/05 04:43:17;;;;;;;;;4.33;4.00;;;;;3.80;69.16;100837.81;5058183;28;45675;-67
2022/01/05 04:45:42;;;;;;;;;2.00;2.00;;;;;3.80;69.77;100851.25;5025215;28;45292;-67
2022/01/05 04:48:07;;;;;;;;;6.00;4.00;;;;;3.83;69.22;100863.63;5032576;28;45396;-67
2022/01/05 04:50:33;;;;;;;;;4.00;3.33;;;;;3.84;69.46;100858.16;5024630;28;47943;-67
2022/01/05 04:52:58;;;;;;;;;6.00;4.00;;;;;3.85;69.79;100864.41;5030483;28;45269;-67
2022/01/05 04:55:24;;;;;;;;;3.33;2.00;;;;;3.85;69.53;100865.28;5027906;28;45960;-67
2022/01/05 04:57:49;;;;;;;;;1.00;1.00;;;;;3.76;69.15;100860.50;5032321;28;45302;-67
2022/01/05 05:00:14;;;;;;;;;4.67;1.00;;;;;3.81;69.41;100863.72;5029404;28;46210;-67
2022/01/05 05:02:40;;;;;;;;;4.00;2.00;;;;;3.75;69.71;100865.97;5035929;28;45509;-66
2022/01/05 05:05:05;;;;;;;;;3.33;2.00;;;;;3.78;70.00;100863.97;5046457;28;45484;-67
2022/01/05 05:07:31;;;;;;;;;8.33;5.00;;;;;3.76;69.56;100857.81;5039323;28;45428;-67
2022/01/05 05:09:56;;;;;;;;;5.00;3.67;;;;;3.76;69.62;100870.38;5034638;28;45322;-67
2022/01/05 05:12:21;;;;;;;;;6.00;3.00;;;;;3.80;69.51;100878.13;5039657;28;45484;-67
2022/01/05 05:14:47;;;;;;;;;3.00;3.00;;;;;3.85;69.95;100886.78;5045697;28;45436;-66
2022/01/05 05:17:12;;;;;;;;;4.00;2.00;;;;;3.86;69.57;100891.19;5039985;28;45510;-67
2022/01/05 05:19:37;;;;;;;;;9.00;5.00;;;;;3.84;69.84;100887.72;5031102;28;46025;-67
2022/01/05 05:22:03;;;;;;;;;2.00;2.00;;;;;3.88;70.05;100902.66;5034520;28;45325;-67
2022/01/05 05:24:28;;;;;;;;;7.33;5.00;;;;;3.91;69.93;100907.84;5037574;28;45474;-67
2022/01/05 05:26:54;;;;;;;;;4.00;2.00;;;;;3.88;69.79;100912.56;5034420;28;45401;-66
2022/01/05 05:29:19;;;;;;;;;6.00;4.00;;;;;3.86;70.43;100920.75;5037448;28;45354;-67
2022/01/05 05:31:45;;;;;;;;;6.00;4.33;;;;;3.85;70.09;100915.47;5048613;28;45673;-67
2022/01/05 05:34:10;;;;;;;;;5.67;5.67;;;;;3.87;70.64;100924.31;5037621;28;45867;-66
2022/01/05 05:36:36;;;;;;;;;7.67;4.00;;;;;3.86;70.42;100920.75;5036601;28;45306;-67
2022/01/05 05:39:01;;;;;;;;;10.00;5.33;;;;;3.81;70.61;100928.22;5039997;28;45519;-67
2022/01/05 05:41:26;;;;;;;;;3.33;2.67;;;;;3.79;70.52;100924.81;5024793;28;45664;-67
2022/01/05 05:43:52;;;;;;;;;3.00;3.00;;;;;3.76;70.57;100930.38;5051155;28;45456;-67
2022/01/05 05:46:17;;;;;;;;;2.67;2.00;;;;;3.79;70.15;100932.88;5026416;28;45231;-67
2022/01/05 05:48:43;;;;;;;;;1.00;1.00;;;;;3.75;69.95;100939.38;5036852;28;45414;-66
2022/01/05 05:51:08;;;;;;;;;5.33;3.33;;;;;3.77;70.12;100942.84;5028113;28;45444;-67
2022/01/05 05:53:34;;;;;;;;;2.00;2.00;;;;;3.65;70.17;100926.69;5053292;28;45271;-67
2022/01/05 05:55:59;;;;;;;;;0.33;0.33;;;;;3.68;70.81;100935.38;5028888;28;45493;-67
2022/01/05 05:58:24;;;;;;;;;8.33;5.00;;;;;3.72;70.77;100936.94;5039220;28;45315;-67
2022/01/05 06:00:50;;;;;;;;;4.33;4.33;;;;;3.73;71.09;100935.94;5024478;28;45396;-67
2022/01/05 06:03:16;;;;;;;;;6.67;3.67;;;;;3.72;70.84;100934.22;5039625;28;45370;-67
2022/01/05 06:05:41;;;;;;;;;4.00;2.00;;;;;3.69;70.96;100942.47;5044140;28;45429;-67
2022/01/05 06:08:08;;;;;;;;;5.67;3.33;;;;;3.53;70.68;100931.88;5037273;28;46960;-67
2022/01/05 06:10:33;;;;;;;;;8.00;3.33;;;;;3.62;70.86;100938.47;5032768;28;45728;-66
2022/01/05 06:12:59;;;;;;;;;6.00;4.33;;;;;3.68;70.97;100953.31;5038813;28;45379;-67
2022/01/05 06:15:24;;;;;;;;;4.33;4.00;;;;;3.77;70.88;100968.84;5035154;28;45330;-67
2022/01/05 06:17:49;;;;;;;;;5.33;4.00;;;;;3.83;70.97;100969.31;5050057;28;47952;-67
2022/01/05 06:20:15;;;;;;;;;4.33;4.00;;;;;3.79;71.00;100959.75;5021258;28;45373;-68
2022/01/05 06:22:42;;;;;;;;;4.67;2.00;;;;;3.68;71.17;100967.63;5049763;28;45286;-67
2022/01/05 06:25:08;;;;;;;;;6.00;4.00;;;;;3.70;70.75;100967.53;5026073;28;45486;-66
2022/01/05 06:27:34;;;;;;;;;4.00;2.00;;;;;3.65;70.84;100965.16;5035812;28;46100;-66
2022/01/05 06:30:04;;;;;;;;;2.00;2.00;;;;;3.66;70.89;100969.53;5032842;28;45291;-67
2022/01/05 06:32:30;;;;;;;;;6.33;4.67;;;;;3.67;71.05;100973.09;5036510;28;45419;-67
2022/01/05 06:34:56;;;;;;;;;4.33;4.33;;;;;3.77;70.84;100975.09;5034111;28;45366;-67
2022/01/05 06:37:21;;;;;;;;;8.67;5.00;;;;;3.79;71.49;100977.69;5037772;28;45749;-67
2022/01/05 06:39:46;;;;;;;;;6.33;4.67;;;;;3.85;70.73;100975.47;5029358;28;45490;-67
2022/01/05 06:42:12;;;;;;;;;7.33;5.00;;;;;3.74;70.90;100975.28;5037234;28;45987;-67
2022/01/05 06:44:37;;;;;;;;;5.67;4.33;;;;;3.74;70.80;100986.03;5034491;28;45491;-67
2022/01/05 06:47:03;;;;;;;;;5.00;2.33;;;;;3.76;71.70;100977.88;5023893;28;45321;-68
2022/01/05 06:49:28;;;;;;;;;2.67;2.33;;;;;3.70;71.69;100992.56;5035471;28;45246;-67
2022/01/05 06:51:54;;;;;;;;;4.33;2.00;;;;;3.72;71.62;100987.97;5025480;28;45278;-67
2022/01/05 06:54:19;;;;;;;;;4.67;2.67;;;;;3.67;71.46;100995.44;5036164;28;45464;-66
2022/01/05 06:56:46;;;;;;;;;3.33;2.67;;;;;3.65;71.60;100983.09;5035131;28;48111;-67
2022/01/05 06:59:12;;;;;;;;;5.00;5.00;;;;;3.61;71.80;101003.91;5036004;28;45417;-66
2022/01/05 07:01:38;;;;;;;;;7.67;5.67;;;;;3.59;72.37;101002.28;5024671;28;45401;-66
2022/01/05 07:04:03;;;;;;;;;5.00;1.00;;;;;3.62;72.36;101002.09;5052902;28;45409;-66
2022/01/05 07:06:28;;;;;;;;;6.00;3.00;;;;;3.60;71.93;100999.50;5030394;28;45652;-66
2022/01/05 07:08:54;;;;;;;;;4.67;3.33;;;;;3.54;71.97;100999.88;5040783;28;45706;-65
2022/01/05 07:11:19;;;;;;;;;4.00;3.67;;;;;3.62;72.53;101002.94;5031969;28;45333;-65
2022/01/05 07:13:45;;;;;;;;;3.33;3.33;;;;;3.67;72.34;101005.34;5040361;28;45856;-65
2022/01/05 07:16:10;;;;;;;;;4.00;2.00;;;;;3.70;72.06;101016.75;5023657;28;46465;-65
2022/01/05 07:18:35;;;;;;;;;4.33;0.33;;;;;3.66;72.66;101020.59;5052589;28;45406;-65
2022/01/05 07:21:01;;;;;;;;;4.00;3.67;;;;;3.62;72.59;101021.75;5019317;28;45378;-66
2022/01/05 07:23:26;;;;;;;;;5.00;1.00;;;;;3.53;72.79;101019.66;5042060;28;45241;-66
2022/01/05 07:25:51;;;;;;;;;4.00;1.00;;;;;3.49;72.28;101027.06;5024728;28;45610;-66
2022/01/05 07:28:17;;;;;;;;;2.67;2.00;;;;;3.51;72.78;101032.31;5042300;28;45349;-66
2022/01/05 07:30:42;;;;;;;;;9.33;5.00;;;;;3.51;73.01;101033.16;5026136;28;45421;-66
2022/01/05 07:33:07;;;;;;;;;5.33;4.00;;;;;3.52;72.42;101039.41;5043706;28;45614;-65
2022/01/05 07:35:33;;;;;;;;;6.67;6.00;;;;;3.45;72.54;101043.44;5013102;28;48193;-66
2022/01/05 07:37:59;;;;;;;;;1.33;1.33;;;;;3.49;73.14;101039.63;5029222;28;45649;-66
2022/01/05 07:40:24;;;;;;;;;1.00;1.00;;;;;3.53;72.88;101047.38;5026751;28;45407;-66
2022/01/05 07:42:49;;;;;;;;;9.67;8.33;;;;;3.58;72.84;101049.75;5030289;28;45627;-66
2022/01/05 07:45:15;;;;;;;;;5.00;3.67;;;;;3.69;72.32;101049.97;5026685;28;45433;-67
2022/01/05 07:47:40;;;;;;;;;8.00;4.00;;;;;3.78;72.50;101057.44;5024393;28;45424;-68
2022/01/05 07:50:14;;;;;;;;;2.33;2.33;;;;;3.73;72.35;101059.53;5022029;28;45531;-67
2022/01/05 07:52:39;;;;;;;;;2.33;1.33;;;;;3.72;72.30;101065.03;5033388;28;45310;-67
2022/01/05 07:55:07;;;;;;;;;1.67;1.00;;;;;3.78;72.18;101057.44;5028422;28;45967;-67
2022/01/05 07:57:33;;;;;;;;;5.67;4.67;;;;;3.65;72.43;101069.94;5033691;28;45478;-67
2022/01/05 07:59:58;;;;;;;;;4.00;2.00;;;;;3.56;72.62;101061.59;5029122;28;45363;-67
2022/01/05 08:02:24;;;;;;;;;3.33;3.33;;;;;3.51;72.89;101083.34;5030503;28;45373;-67
2022/01/05 08:04:49;;;;;;;;;3.00;2.67;;;;;3.60;72.94;101085.47;5030472;28;46015;-67
2022/01/05 08:07:15;;;;;;;;;8.00;3.67;;;;;3.68;72.71;101083.16;5035629;28;45318;-67
2022/01/05 08:09:40;;;;;;;;;2.67;2.00;;;;;3.68;72.65;101080.47;5024567;28;45345;-66
2022/01/05 08:12:06;;;;;;;;;6.67;4.33;;;;;3.73;72.48;101085.56;5037000;28;45325;-66
2022/01/05 08:14:32;;;;;;;;;4.00;4.00;;;;;3.75;72.31;101095.25;5032705;28;46776;-67
2022/01/05 08:16:57;;;;;;;;;4.33;1.00;;;;;3.70;72.37;101092.00;5029840;28;45234;-66
2022/01/05 08:19:23;;;;;;;;;4.00;1.00;;;;;3.66;72.44;101103.00;5030187;28;45471;-66
2022/01/05 08:21:48;;;;;;;;;9.00;4.00;;;;;3.81;72.31;101105.63;5026283;28;45497;-68
2022/01/05 08:24:13;;;;;;;;;5.00;2.00;;;;;3.81;72.24;101094.84;5035599;28;46086;-65
2022/01/05 08:26:39;;;;;;;;;13.33;4.00;;;;;3.81;72.50;101099.38;5027725;28;45271;-67
2022/01/05 08:29:04;;;;;;;;;9.67;5.33;;;;;3.82;72.39;101104.66;5036077;28;45400;-67
2022/01/05 08:31:29;;;;;;;;;5.33;4.00;;;;;3.76;72.47;101118.47;5033437;28;45374;-67
2022/01/05 08:33:56;;;;;;;;;6.67;0.67;;;;;3.82;72.83;101107.34;5039862;28;45681;-67
2022/01/05 08:36:23;;;;;;;;;2.00;1.00;;;;;3.80;72.60;101122.69;5026149;28;45357;-68
2022/01/05 08:38:48;;;;;;;;;4.00;1.67;;;;;3.66;72.79;101103.88;5035954;28;45441;-67
2022/01/05 08:41:14;;;;;;;;;5.33;2.00;;;;;3.86;72.58;101114.28;5028532;28;45247;-68
2022/01/05 08:43:39;;;;;;;;;9.00;5.67;;;;;3.97;72.10;101116.25;5036787;28;46545;-68
2022/01/05 08:46:04;;;;;;;;;10.00;4.33;;;;;4.12;72.25;101117.09;5028077;28;45358;-67
2022/01/05 08:48:30;;;;;;;;;2.00;2.00;;;;;3.95;71.80;101101.19;5038333;28;45259;-68
2022/01/05 08:50:55;;;;;;;;;3.00;2.00;;;;;4.05;72.01;101113.09;5029169;28;45264;-68
2022/01/05 08:53:21;;;;;;;;;1.00;1.00;;;;;3.92;72.15;101119.25;5054477;28;47393;-68
2022/01/05 08:55:49;;;;;;;;;5.33;3.67;;;;;4.07;72.26;101119.25;5029800;28;45294;-67
2022/01/05 08:58:17;;;;;;;;;1.00;1.00;;;;;3.96;71.73;101129.78;5039665;28;45338;-68
2022/01/05 09:00:42;;;;;;;;;5.00;2.00;;;;;3.97;71.73;101127.00;5026090;28;45549;-67
2022/01/05 09:03:09;;;;;;;;;6.67;2.00;;;;;4.08;71.40;101119.16;5038957;28;45334;-67
2022/01/05 09:05:35;;;;;;;;;7.33;5.00;;;;;4.09;71.67;101130.78;5033760;28;45379;-68
2022/01/05 09:08:01;;;;;;;;;5.00;2.00;;;;;3.95;71.63;101118.19;5033351;28;45421;-67
2022/01/05 09:10:27;;;;;;;;;5.33;2.33;;;;;4.10;72.03;101132.47;5035518;28;45400;-68
2022/01/05 09:12:53;;;;;;;;;2.00;2.00;;;;;4.13;71.15;101156.47;5039748;28;45310;-68
2022/01/05 09:15:19;;;;;;;;;2.00;1.00;;;;;4.22;71.52;101148.69;5029825;28;45267;-67
2022/01/05 09:17:45;;;;;;;;;12.33;7.67;;;;;4.21;71.08;101146.09;5034838;28;45467;-68
2022/01/05 09:20:11;;;;;;;;;4.00;2.00;;;;;4.25;71.39;101147.63;5032086;28;45458;-68
2022/01/05 09:22:38;;;;;;;;;2.33;2.33;;;;;4.19;71.40;101138.13;5038693;28;45407;-68
2022/01/05 09:25:09;;;;;;;;;4.33;4.00;;;;;4.37;71.39;101146.00;5033900;28;45457;-67
2022/01/05 09:27:35;;;;;;;;;0.33;0.33;;;;;4.39;71.25;101160.19;5038838;28;45320;-68
2022/01/05 09:30:01;;;;;;;;;6.33;3.67;;;;;4.38;71.05;101151.28;5035759;28;45619;-68
2022/01/05 09:32:27;;;;;;;;;1.67;1.67;;;;;4.23;71.23;101150.44;5039583;28;46106;-68
2022/01/05 09:34:52;;;;;;;;;3.33;2.00;;;;;4.36;71.66;101161.25;5033391;28;45424;-68
2022/01/05 09:37:23;;;;;;;;;2.00;2.00;;;;;4.46;71.04;101178.53;5027308;28;45491;-68
2022/01/05 09:42:34;;;;;;;;;5.33;5.00;;;;;4.36;71.10;101182.78;5030845;28;45267;-68
2022/01/05 09:45:05;;;;;;;;;2.33;2.33;;;;;4.45;71.55;101187.59;5031427;28;45266;-68
2022/01/05 09:48:08;;;;;;;;;5.00;2.00;;;;;4.59;70.97;101186.69;5026674;28;45158;-68
2022/01/05 09:50:38;;;;;;;;;9.33;5.00;;;;;4.58;71.58;101206.47;5018960;28;45501;-68
2022/01/05 09:53:05;;;;;;;;;5.00;2.00;;;;;4.62;70.53;101206.16;5025480;28;46212;-67
2022/01/05 09:55:31;;;;;;;;;3.33;1.67;;;;;4.49;70.34;101207.94;5029691;28;45381;-67
2022/01/05 09:57:56;;;;;;;;;9.67;7.33;;;;;4.54;70.75;101208.50;5036316;28;45523;-68
2022/01/05 10:00:22;;;;;;;;;4.67;3.33;;;;;4.63;70.75;101213.28;5028597;28;45247;-67
2022/01/05 10:02:49;;;;;;;;;29.33;23.67;;;;;4.61;70.58;101215.19;5035263;28;45490;-67
2022/01/05 10:05:18;;;;;;;;;9.33;5.00;;;;;4.68;70.98;101219.22;5033335;28;45405;-67
2022/01/05 10:07:44;;;;;;;;;13.33;5.33;;;;;4.80;70.42;101219.41;5036971;28;45196;-68
2022/01/05 10:10:10;;;;;;;;;2.00;2.00;;;;;4.92;70.42;101227.53;5033362;28;45492;-68
2022/01/05 10:12:36;;;;;;;;;6.00;4.00;;;;;4.88;69.85;101225.16;5037700;28;46939;-67
2022/01/05 10:15:03;;;;;;;;;5.00;5.00;;;;;4.94;69.88;101224.75;5031474;28;45314;-67
2022/01/05 10:17:31;;;;;;;;;5.67;5.00;;;;;4.91;69.96;101230.31;5033598;28;45329;-67
2022/01/05 10:19:56;;;;;;;;;4.67;2.00;;;;;5.06;70.16;101237.41;5046865;28;45505;-67
2022/01/05 10:22:35;;;;;;;;;5.00;3.33;;;;;5.16;69.56;101243.91;5035078;28;45590;-67
2022/01/05 10:25:06;;;;;;;;;5.00;5.00;;;;;5.19;69.37;101242.84;5033338;28;45887;-67
2022/01/05 10:27:32;;;;;;;;;5.00;3.00;;;;;5.29;69.64;101233.19;5052625;28;45412;-67
2022/01/05 10:30:01;;;;;;;;;10.33;6.00;;;;;5.15;69.20;101230.53;5035103;28;45401;-66
2022/01/05 10:32:35;;;;;;;;;9.00;3.67;;;;;5.18;69.84;101231.22;5038678;28;45667;-67
2022/01/05 10:35:10;;;;;;;;;9.00;6.00;;;;;5.29;69.76;101239.44;5041685;28;45791;-67
2022/01/05 10:37:41;;;;;;;;;6.33;6.33;;;;;5.25;69.43;101237.91;5026460;28;45523;-67
2022/01/05 10:40:19;;;;;;;;;3.00;3.00;;;;;5.35;69.74;101247.09;5039731;28;45368;-67
2022/01/05 10:42:47;;;;;;;;;6.00;3.00;;;;;5.53;69.88;101250.41;5032049;28;45254;-67
2022/01/05 10:45:16;;;;;;;;;5.00;5.00;;;;;5.62;68.20;101251.59;5028796;28;45264;-67
2022/01/05 10:47:42;;;;;;;;;6.67;5.00;;;;;5.39;68.51;101245.94;5027137;28;45608;-66
2022/01/05 10:50:18;;;;;;;;;6.33;5.33;;;;;5.46;68.66;101247.25;5030265;28;45369;-67
2022/01/05 10:52:53;;;;;;;;;2.67;2.67;;;;;5.46;67.90;101246.38;5034401;28;46049;-67
2022/01/05 10:55:20;;;;;;;;;10.67;3.67;;;;;5.54;68.21;101243.19;5029646;28;47583;-67
2022/01/05 10:58:04;;;;;;;;;7.33;5.00;;;;;5.63;67.93;101250.59;5035876;28;45413;-68
2022/01/05 11:00:53;;;;;;;;;6.00;2.67;;;;;5.68;68.23;101245.78;5026683;28;45326;-67
2022/01/05 11:03:19;;;;;;;;;7.00;5.00;;;;;5.66;67.47;101261.19;5032345;28;48008;-67
2022/01/05 11:06:19;;;;;;;;;6.67;5.00;;;;;5.70;66.98;101251.91;5030770;28;45266;-67
2022/01/05 11:08:59;;;;;;;;;5.67;4.00;;;;;5.80;67.84;101258.41;5038521;28;45295;-68
2022/01/05 11:11:46;;;;;;;;;5.67;4.67;;;;;5.84;67.75;101258.09;5047996;28;45582;-69
2022/01/05 11:14:30;;;;;;;;;6.00;6.00;;;;;5.80;66.69;101258.41;5036664;28;45494;-67
2022/01/05 11:16:57;;;;;;;;;11.00;6.00;;;;;5.84;66.81;101263.47;5029511;28;45299;-66
2022/01/05 11:19:29;;;;;;;;;4.33;4.33;;;;;5.87;66.53;101254.31;5031055;28;45431;-66
2022/01/05 11:22:07;;;;;;;;;3.67;3.67;;;;;5.93;66.99;101256.63;5033104;28;45323;-66
2022/01/05 11:24:37;;;;;;;;;4.67;4.33;;;;;5.98;65.90;101259.91;5030232;28;45271;-65
2022/01/05 11:27:04;;;;;;;;;6.00;5.33;;;;;6.00;66.13;101254.38;5040600;28;45428;-66
2022/01/05 11:29:30;;;;;;;;;4.33;2.00;;;;;5.94;65.56;101266.44;5036836;28;45302;-67
2022/01/05 11:31:57;;;;;;;;;10.33;6.33;;;;;5.95;66.18;101259.22;5033986;28;45239;-67
2022/01/05 11:34:26;;;;;;;;;6.67;5.00;;;;;5.98;65.80;101257.19;5049582;28;48442;-66
2022/01/05 11:36:51;;;;;;;;;4.33;4.33;;;;;6.06;65.83;101246.75;5023169;28;45400;-66